sensor_id;sensor_type;location;lat;lon;timestamp;pressure;altitude;pressure_sealevel;temperature;humidity
8140;BME280;4111;50.972;7.072;2022-09-06T00:00:40;101050.19;;;22.08;55.09
8140;BME280;4111;50.972;7.072;2022-09-06T00:03:06;101047.66;;;21.97;55.44
8140;BME280;4111;50.972;7.072;2022-09-06T00:05:34;101042.41;;;22.18;54.81
8140;BME280;4111;50.972;7.072;2022-09-06T00:08:01;101042.97;;;22.29;54.82
8140;BME280;4111;50.972;7.072;2022-09-06T00:10:29;101044.72;;;22.25;54.65
8140;BME280;4111;50.972;7.072;2022-09-06T00:13:01;101042.16;;;22.29;54.02
8140;BME280;4111;50.972;7.072;2022-09-06T00:15:28;101043.47;;;22.31;53.69
8140;BME280;4111;50.972;7.072;2022-09-06T00:17:57;101049.16;;;22.26;53.74
8140;BME280;4111;50.972;7.072;2022-09-06T00:20:25;101051.59;;;22.28;53.82
8140;BME280;4111;50.972;7.072;2022-09-06T00:23:00;101066.34;;;22.23;53.82
8140;BME280;4111;50.972;7.072;2022-09-06T00:25:27;101069.88;;;22.15;53.77
8140;BME280;4111;50.972;7.072;2022-09-06T00:28:00;101081.19;;;22.27;53.90
8140;BME280;4111;50.972;7.072;2022-09-06T00:30:29;101094.88;;;22.64;53.21
8140;BME280;4111;50.972;7.072;2022-09-06T00:32:56;101098.22;;;22.92;52.78
8140;BME280;4111;50.972;7.072;2022-09-06T00:35:24;101155.25;;;22.93;52.28
8140;BME280;4111;50.972;7.072;2022-09-06T00:37:55;101179.63;;;22.82;52.34
8140;BME280;4111;50.972;7.072;2022-09-06T00:40:22;101174.41;;;22.81;51.85
8140;BME280;4111;50.972;7.072;2022-09-06T00:42:48;101170.22;;;22.92;53.20
8140;BME280;4111;50.972;7.072;2022-09-06T00:45:14;101180.94;;;22.85;54.60
8140;BME280;4111;50.972;7.072;2022-09-06T00:47:42;101176.13;;;22.59;58.13
8140;BME280;4111;50.972;7.072;2022-09-06T00:50:11;101175.66;;;22.43;61.96
8140;BME280;4111;50.972;7.072;2022-09-06T00:52:40;101166.78;;;22.55;63.44
8140;BME280;4111;50.972;7.072;2022-09-06T00:55:08;101163.88;;;22.60;65.24
8140;BME280;4111;50.972;7.072;2022-09-06T00:57:35;101158.34;;;22.60;66.20
8140;BME280;4111;50.972;7.072;2022-09-06T01:00:04;101156.38;;;22.52;66.97
8140;BME280;4111;50.972;7.072;2022-09-06T01:02:31;101152.00;;;22.28;68.69
8140;BME280;4111;50.972;7.072;2022-09-06T01:04:58;101151.97;;;22.06;69.31
8140;BME280;4111;50.972;7.072;2022-09-06T01:07:38;101152.59;;;21.80;73.03
8140;BME280;4111;50.972;7.072;2022-09-06T01:13:30;101151.94;;;21.61;75.02
8140;BME280;4111;50.972;7.072;2022-09-06T01:16:24;101144.84;;;22.13;76.47
8140;BME280;4111;50.972;7.072;2022-09-06T01:22:43;101144.38;;;22.65;75.47
8140;BME280;4111;50.972;7.072;2022-09-06T01:25:33;101147.28;;;22.60;74.66
8140;BME280;4111;50.972;7.072;2022-09-06T01:28:25;101135.91;;;22.08;76.74
8140;BME280;4111;50.972;7.072;2022-09-06T01:31:01;101134.31;;;21.93;77.00
8140;BME280;4111;50.972;7.072;2022-09-06T01:33:43;101145.69;;;21.69;78.85
8140;BME280;4111;50.972;7.072;2022-09-06T01:36:17;101137.44;;;21.41;80.21
8140;BME280;4111;50.972;7.072;2022-09-06T01:38:44;101143.50;;;21.43;80.39
8140;BME280;4111;50.972;7.072;2022-09-06T01:41:11;101138.91;;;21.75;80.84
8140;BME280;4111;50.972;7.072;2022-09-06T01:43:39;101128.47;;;21.94;80.27
8140;BME280;4111;50.972;7.072;2022-09-06T01:46:30;101126.31;;;21.91;80.23
8140;BME280;4111;50.972;7.072;2022-09-06T01:49:06;101128.59;;;21.89;80.76
8140;BME280;4111;50.972;7.072;2022-09-06T02:00:19;101097.16;;;21.12;83.65
8140;BME280;4111;50.972;7.072;2022-09-06T02:05:38;101126.97;;;21.88;82.56
8140;BME280;4111;50.972;7.072;2022-09-06T02:08:13;101138.03;;;21.88;81.55
8140;BME280;4111;50.972;7.072;2022-09-06T02:10:57;101125.47;;;21.82;81.54
8140;BME280;4111;50.972;7.072;2022-09-06T02:13:29;101130.34;;;21.63;82.26
8140;BME280;4111;50.972;7.072;2022-09-06T02:16:01;101124.53;;;21.50;82.94
8140;BME280;4111;50.972;7.072;2022-09-06T02:18:57;101114.19;;;21.42;83.11
8140;BME280;4111;50.972;7.072;2022-09-06T02:21:30;101101.38;;;21.10;85.63
8140;BME280;4111;50.972;7.072;2022-09-06T02:24:00;101098.50;;;20.87;86.56
8140;BME280;4111;50.972;7.072;2022-09-06T02:26:36;101109.28;;;21.39;86.66
8140;BME280;4111;50.972;7.072;2022-09-06T02:29:05;101113.56;;;21.82;85.63
8140;BME280;4111;50.972;7.072;2022-09-06T02:31:36;101109.59;;;21.74;84.29
8140;BME280;4111;50.972;7.072;2022-09-06T02:34:04;101103.00;;;21.84;83.95
8140;BME280;4111;50.972;7.072;2022-09-06T02:36:31;101103.91;;;21.70;83.99
8140;BME280;4111;50.972;7.072;2022-09-06T02:38:59;101086.69;;;21.37;84.85
8140;BME280;4111;50.972;7.072;2022-09-06T02:41:26;101088.69;;;21.09;85.96
8140;BME280;4111;50.972;7.072;2022-09-06T02:43:54;101090.63;;;21.08;86.71
8140;BME280;4111;50.972;7.072;2022-09-06T02:46:20;101087.47;;;21.01;86.56
8140;BME280;4111;50.972;7.072;2022-09-06T02:48:49;101095.22;;;20.99;86.73
8140;BME280;4111;50.972;7.072;2022-09-06T02:51:16;101100.97;;;20.89;88.05
8140;BME280;4111;50.972;7.072;2022-09-06T02:53:43;101108.84;;;20.95;88.05
8140;BME280;4111;50.972;7.072;2022-09-06T02:56:10;101122.97;;;20.94;87.92
8140;BME280;4111;50.972;7.072;2022-09-06T02:58:36;101137.06;;;20.92;87.03
8140;BME280;4111;50.972;7.072;2022-09-06T03:01:03;101145.44;;;20.87;86.33
8140;BME280;4111;50.972;7.072;2022-09-06T03:03:30;101147.59;;;20.76;86.13
8140;BME280;4111;50.972;7.072;2022-09-06T03:05:56;101140.63;;;20.65;86.15
8140;BME280;4111;50.972;7.072;2022-09-06T03:08:23;101134.75;;;20.53;86.57
8140;BME280;4111;50.972;7.072;2022-09-06T03:10:59;101119.13;;;20.48;86.56
8140;BME280;4111;50.972;7.072;2022-09-06T03:13:26;101121.59;;;20.50;86.80
8140;BME280;4111;50.972;7.072;2022-09-06T03:15:55;101119.94;;;20.49;87.18
8140;BME280;4111;50.972;7.072;2022-09-06T03:18:27;101108.34;;;20.66;87.73
8140;BME280;4111;50.972;7.072;2022-09-06T03:20:54;101114.78;;;20.89;86.96
8140;BME280;4111;50.972;7.072;2022-09-06T03:23:22;101100.47;;;20.73;87.16
8140;BME280;4111;50.972;7.072;2022-09-06T03:25:49;101088.31;;;20.74;86.83
8140;BME280;4111;50.972;7.072;2022-09-06T03:28:17;101089.53;;;20.68;87.11
8140;BME280;4111;50.972;7.072;2022-09-06T03:30:45;101089.34;;;20.64;87.60
8140;BME280;4111;50.972;7.072;2022-09-06T03:33:12;101086.66;;;20.59;87.38
8140;BME280;4111;50.972;7.072;2022-09-06T03:35:38;101098.28;;;20.56;87.58
8140;BME280;4111;50.972;7.072;2022-09-06T03:38:05;101098.88;;;20.53;88.08
8140;BME280;4111;50.972;7.072;2022-09-06T03:40:31;101088.88;;;20.57;88.08
8140;BME280;4111;50.972;7.072;2022-09-06T03:42:58;101093.00;;;20.73;88.91
8140;BME280;4111;50.972;7.072;2022-09-06T03:45:24;101085.84;;;21.00;88.28
8140;BME280;4111;50.972;7.072;2022-09-06T03:47:51;101080.81;;;21.02;87.77
8140;BME280;4111;50.972;7.072;2022-09-06T03:50:17;101071.03;;;20.96;87.60
8140;BME280;4111;50.972;7.072;2022-09-06T03:52:43;101073.16;;;20.99;87.70
8140;BME280;4111;50.972;7.072;2022-09-06T03:55:10;101065.81;;;20.80;88.04
8140;BME280;4111;50.972;7.072;2022-09-06T03:57:37;101061.22;;;20.62;88.90
8140;BME280;4111;50.972;7.072;2022-09-06T04:00:03;101059.66;;;20.56;89.31
8140;BME280;4111;50.972;7.072;2022-09-06T04:02:30;101063.44;;;20.46;89.14
8140;BME280;4111;50.972;7.072;2022-09-06T04:04:57;101058.94;;;20.36;89.17
8140;BME280;4111;50.972;7.072;2022-09-06T04:07:23;101062.91;;;20.30;89.40
8140;BME280;4111;50.972;7.072;2022-09-06T04:09:50;101066.19;;;20.32;90.17
8140;BME280;4111;50.972;7.072;2022-09-06T04:12:16;101065.19;;;20.56;90.09
8140;BME280;4111;50.972;7.072;2022-09-06T04:14:43;101067.13;;;20.83;89.12
8140;BME280;4111;50.972;7.072;2022-09-06T04:17:09;101057.72;;;20.98;87.79
8140;BME280;4111;50.972;7.072;2022-09-06T04:19:36;101054.09;;;21.25;87.12
8140;BME280;4111;50.972;7.072;2022-09-06T04:22:02;101046.56;;;21.17;86.13
8140;BME280;4111;50.972;7.072;2022-09-06T04:24:29;101053.94;;;20.94;86.03
8140;BME280;4111;50.972;7.072;2022-09-06T04:26:55;101054.78;;;20.80;85.89
8140;BME280;4111;50.972;7.072;2022-09-06T04:29:45;101052.97;;;20.62;86.86
8140;BME280;4111;50.972;7.072;2022-09-06T04:32:12;101052.09;;;20.48;86.95
8140;BME280;4111;50.972;7.072;2022-09-06T04:34:39;101052.50;;;20.27;88.06
8140;BME280;4111;50.972;7.072;2022-09-06T04:37:05;101050.00;;;20.12;88.44
8140;BME280;4111;50.972;7.072;2022-09-06T04:39:32;101050.34;;;20.10;89.08
8140;BME280;4111;50.972;7.072;2022-09-06T04:41:58;101048.97;;;20.08;89.18
8140;BME280;4111;50.972;7.072;2022-09-06T04:44:25;101064.50;;;20.04;89.37
8140;BME280;4111;50.972;7.072;2022-09-06T04:47:03;101053.56;;;19.98;89.82
8140;BME280;4111;50.972;7.072;2022-09-06T04:49:34;101054.84;;;19.87;89.92
8140;BME280;4111;50.972;7.072;2022-09-06T04:52:01;101063.66;;;19.89;89.66
8140;BME280;4111;50.972;7.072;2022-09-06T04:54:28;101060.38;;;19.87;89.60
8140;BME280;4111;50.972;7.072;2022-09-06T04:56:54;101072.22;;;19.88;89.38
8140;BME280;4111;50.972;7.072;2022-09-06T04:59:20;101078.00;;;19.86;89.29
8140;BME280;4111;50.972;7.072;2022-09-06T05:01:47;101079.72;;;19.82;88.97
8140;BME280;4111;50.972;7.072;2022-09-06T05:04:13;101080.47;;;19.69;88.89
8140;BME280;4111;50.972;7.072;2022-09-06T05:06:40;101083.31;;;19.64;89.22
8140;BME280;4111;50.972;7.072;2022-09-06T05:09:08;101079.34;;;19.70;89.22
8140;BME280;4111;50.972;7.072;2022-09-06T05:11:34;101081.56;;;19.73;89.03
8140;BME280;4111;50.972;7.072;2022-09-06T05:14:01;101087.63;;;19.70;88.69
8140;BME280;4111;50.972;7.072;2022-09-06T05:16:28;101089.03;;;19.67;88.57
8140;BME280;4111;50.972;7.072;2022-09-06T05:18:54;101092.09;;;19.66;88.84
8140;BME280;4111;50.972;7.072;2022-09-06T05:21:21;101084.34;;;19.68;89.07
8140;BME280;4111;50.972;7.072;2022-09-06T05:23:48;101092.25;;;19.55;89.50
8140;BME280;4111;50.972;7.072;2022-09-06T05:26:14;101087.09;;;19.49;89.74
8140;BME280;4111;50.972;7.072;2022-09-06T05:28:40;101091.13;;;19.56;89.39
8140;BME280;4111;50.972;7.072;2022-09-06T05:31:27;101091.88;;;19.62;88.77
8140;BME280;4111;50.972;7.072;2022-09-06T05:33:55;101087.78;;;19.59;88.78
8140;BME280;4111;50.972;7.072;2022-09-06T05:36:25;101100.44;;;19.60;89.25
8140;BME280;4111;50.972;7.072;2022-09-06T05:38:53;101087.34;;;19.52;89.77
8140;BME280;4111;50.972;7.072;2022-09-06T05:41:21;101087.09;;;19.49;90.20
8140;BME280;4111;50.972;7.072;2022-09-06T05:43:48;101095.06;;;19.50;90.04
8140;BME280;4111;50.972;7.072;2022-09-06T05:46:15;101082.84;;;19.56;90.31
8140;BME280;4111;50.972;7.072;2022-09-06T05:48:42;101079.22;;;19.61;90.12
8140;BME280;4111;50.972;7.072;2022-09-06T05:51:10;101087.41;;;19.66;89.79
8140;BME280;4111;50.972;7.072;2022-09-06T05:53:42;101092.03;;;19.71;90.43
8140;BME280;4111;50.972;7.072;2022-09-06T05:56:11;101089.19;;;19.76;90.35
8140;BME280;4111;50.972;7.072;2022-09-06T05:58:37;101087.47;;;19.80;90.35
8140;BME280;4111;50.972;7.072;2022-09-06T06:01:05;101080.34;;;19.79;90.84
8140;BME280;4111;50.972;7.072;2022-09-06T06:03:31;101095.44;;;19.81;90.98
8140;BME280;4111;50.972;7.072;2022-09-06T06:05:58;101092.41;;;19.83;90.60
8140;BME280;4111;50.972;7.072;2022-09-06T06:08:24;101095.97;;;19.84;90.51
8140;BME280;4111;50.972;7.072;2022-09-06T06:10:51;101090.75;;;19.82;90.94
8140;BME280;4111;50.972;7.072;2022-09-06T06:13:17;101089.47;;;19.93;89.44
8140;BME280;4111;50.972;7.072;2022-09-06T06:15:44;101094.00;;;20.03;89.20
8140;BME280;4111;50.972;7.072;2022-09-06T06:18:10;101088.09;;;20.10;88.23
8140;BME280;4111;50.972;7.072;2022-09-06T06:20:36;101093.31;;;20.11;89.19
8140;BME280;4111;50.972;7.072;2022-09-06T06:23:03;101092.91;;;20.18;89.31
8140;BME280;4111;50.972;7.072;2022-09-06T06:25:29;101083.34;;;20.29;89.00
8140;BME280;4111;50.972;7.072;2022-09-06T06:27:56;101083.75;;;20.36;88.78
8140;BME280;4111;50.972;7.072;2022-09-06T06:30:22;101081.91;;;20.46;88.33
8140;BME280;4111;50.972;7.072;2022-09-06T06:32:49;101084.00;;;20.54;87.64
8140;BME280;4111;50.972;7.072;2022-09-06T06:35:15;101078.28;;;20.64;87.83
8140;BME280;4111;50.972;7.072;2022-09-06T06:37:42;101082.50;;;20.75;87.88
8140;BME280;4111;50.972;7.072;2022-09-06T06:40:10;101087.69;;;20.77;87.94
8140;BME280;4111;50.972;7.072;2022-09-06T06:42:37;101083.00;;;20.91;86.89
8140;BME280;4111;50.972;7.072;2022-09-06T06:45:04;101074.59;;;20.96;84.63
8140;BME280;4111;50.972;7.072;2022-09-06T06:47:30;101079.88;;;21.07;83.15
8140;BME280;4111;50.972;7.072;2022-09-06T06:49:57;101079.47;;;21.13;82.26
8140;BME280;4111;50.972;7.072;2022-09-06T06:52:23;101085.50;;;21.15;80.80
8140;BME280;4111;50.972;7.072;2022-09-06T06:54:50;101086.28;;;21.30;80.65
8140;BME280;4111;50.972;7.072;2022-09-06T06:57:17;101080.84;;;21.38;78.75
8140;BME280;4111;50.972;7.072;2022-09-06T06:59:43;101091.00;;;21.43;77.60
8140;BME280;4111;50.972;7.072;2022-09-06T07:02:10;101090.00;;;21.62;77.55
8140;BME280;4111;50.972;7.072;2022-09-06T07:04:38;101086.06;;;21.76;77.63
8140;BME280;4111;50.972;7.072;2022-09-06T07:07:04;101088.78;;;21.90;76.79
8140;BME280;4111;50.972;7.072;2022-09-06T07:09:51;101083.09;;;21.95;75.67
8140;BME280;4111;50.972;7.072;2022-09-06T07:12:38;101090.00;;;22.07;74.85
8140;BME280;4111;50.972;7.072;2022-09-06T07:15:04;101082.59;;;22.16;74.44
8140;BME280;4111;50.972;7.072;2022-09-06T07:17:31;101079.94;;;22.33;75.12
8140;BME280;4111;50.972;7.072;2022-09-06T07:19:58;101078.88;;;22.52;75.00
8140;BME280;4111;50.972;7.072;2022-09-06T07:22:41;101077.97;;;22.65;74.79
8140;BME280;4111;50.972;7.072;2022-09-06T07:25:08;101083.53;;;22.83;74.85
8140;BME280;4111;50.972;7.072;2022-09-06T07:27:35;101076.25;;;22.95;73.66
8140;BME280;4111;50.972;7.072;2022-09-06T07:30:18;101071.91;;;23.03;70.78
8140;BME280;4111;50.972;7.072;2022-09-06T07:32:46;101080.31;;;22.98;69.09
8140;BME280;4111;50.972;7.072;2022-09-06T07:35:12;101074.03;;;23.15;69.21
8140;BME280;4111;50.972;7.072;2022-09-06T07:37:39;101072.41;;;23.31;68.31
8140;BME280;4111;50.972;7.072;2022-09-06T07:40:06;101079.25;;;23.34;67.18
8140;BME280;4111;50.972;7.072;2022-09-06T07:42:33;101073.72;;;23.51;66.98
8140;BME280;4111;50.972;7.072;2022-09-06T07:45:02;101082.03;;;23.69;66.43
8140;BME280;4111;50.972;7.072;2022-09-06T07:47:29;101078.44;;;23.77;65.77
8140;BME280;4111;50.972;7.072;2022-09-06T07:50:16;101072.56;;;23.87;64.72
8140;BME280;4111;50.972;7.072;2022-09-06T07:53:06;101074.34;;;24.01;63.95
8140;BME280;4111;50.972;7.072;2022-09-06T07:55:40;101076.16;;;24.05;63.45
8140;BME280;4111;50.972;7.072;2022-09-06T07:58:06;101070.94;;;24.04;61.96
8140;BME280;4111;50.972;7.072;2022-09-06T08:00:33;101080.50;;;24.15;61.78
8140;BME280;4111;50.972;7.072;2022-09-06T08:02:59;101080.50;;;24.24;61.17
8140;BME280;4111;50.972;7.072;2022-09-06T08:05:26;101076.50;;;24.42;61.06
8140;BME280;4111;50.972;7.072;2022-09-06T08:08:12;101076.94;;;24.70;61.38
8140;BME280;4111;50.972;7.072;2022-09-06T08:10:59;101079.41;;;24.93;60.28
8140;BME280;4111;50.972;7.072;2022-09-06T08:13:25;101076.78;;;24.97;59.16
8140;BME280;4111;50.972;7.072;2022-09-06T08:15:59;101078.19;;;25.03;58.40
8140;BME280;4111;50.972;7.072;2022-09-06T08:18:26;101070.66;;;25.03;57.88
8140;BME280;4111;50.972;7.072;2022-09-06T08:20:53;101074.69;;;25.14;57.67
8140;BME280;4111;50.972;7.072;2022-09-06T08:23:20;101072.72;;;25.24;57.20
8140;BME280;4111;50.972;7.072;2022-09-06T08:25:56;101070.94;;;25.40;57.20
8140;BME280;4111;50.972;7.072;2022-09-06T08:28:24;101070.50;;;25.50;56.81
8140;BME280;4111;50.972;7.072;2022-09-06T08:30:54;101071.97;;;25.69;56.55
8140;BME280;4111;50.972;7.072;2022-09-06T08:33:20;101072.03;;;25.81;55.36
8140;BME280;4111;50.972;7.072;2022-09-06T08:35:57;101066.38;;;25.90;54.70
8140;BME280;4111;50.972;7.072;2022-09-06T08:38:24;101072.84;;;26.03;54.60
8140;BME280;4111;50.972;7.072;2022-09-06T08:40:53;101073.31;;;26.05;53.76
8140;BME280;4111;50.972;7.072;2022-09-06T08:43:21;101066.13;;;26.16;53.86
8140;BME280;4111;50.972;7.072;2022-09-06T08:45:53;101063.81;;;26.18;52.95
8140;BME280;4111;50.972;7.072;2022-09-06T08:48:23;101055.97;;;26.33;52.58
8140;BME280;4111;50.972;7.072;2022-09-06T08:53:46;101056.69;;;26.66;52.42
8140;BME280;4111;50.972;7.072;2022-09-06T08:56:33;101053.44;;;26.77;52.18
8140;BME280;4111;50.972;7.072;2022-09-06T08:59:04;101056.91;;;26.86;51.16
8140;BME280;4111;50.972;7.072;2022-09-06T09:04:22;101047.50;;;26.90;50.37
8140;BME280;4111;50.972;7.072;2022-09-06T09:06:53;101043.06;;;27.02;50.94
8140;BME280;4111;50.972;7.072;2022-09-06T09:09:21;101047.69;;;27.10;50.19
8140;BME280;4111;50.972;7.072;2022-09-06T09:11:49;101033.31;;;27.08;50.09
8140;BME280;4111;50.972;7.072;2022-09-06T09:14:22;101032.25;;;27.13;50.13
8140;BME280;4111;50.972;7.072;2022-09-06T09:17:08;101041.56;;;27.04;49.80
8140;BME280;4111;50.972;7.072;2022-09-06T09:19:38;101034.84;;;26.93;49.76
8140;BME280;4111;50.972;7.072;2022-09-06T09:22:07;101037.38;;;26.98;48.97
8140;BME280;4111;50.972;7.072;2022-09-06T09:24:34;101032.97;;;26.97;49.50
8140;BME280;4111;50.972;7.072;2022-09-06T09:27:08;101026.34;;;27.02;49.26
8140;BME280;4111;50.972;7.072;2022-09-06T09:32:43;101015.63;;;27.16;49.48
8140;BME280;4111;50.972;7.072;2022-09-06T09:40:59;101016.28;;;27.38;48.31
8140;BME280;4111;50.972;7.072;2022-09-06T09:43:32;101015.66;;;27.44;48.02
8140;BME280;4111;50.972;7.072;2022-09-06T09:48:36;101001.81;;;27.48;47.74
8140;BME280;4111;50.972;7.072;2022-09-06T09:51:23;100994.81;;;27.54;47.29
8140;BME280;4111;50.972;7.072;2022-09-06T09:56:39;100981.56;;;27.79;46.81
8140;BME280;4111;50.972;7.072;2022-09-06T09:59:16;100978.31;;;27.77;46.03
8140;BME280;4111;50.972;7.072;2022-09-06T10:01:43;100973.88;;;27.88;46.80
8140;BME280;4111;50.972;7.072;2022-09-06T10:04:11;100974.91;;;28.00;46.51
8140;BME280;4111;50.972;7.072;2022-09-06T10:07:07;100977.66;;;28.12;46.35
8140;BME280;4111;50.972;7.072;2022-09-06T10:09:39;100978.59;;;28.20;46.28
8140;BME280;4111;50.972;7.072;2022-09-06T10:12:07;100975.09;;;28.23;45.99
8140;BME280;4111;50.972;7.072;2022-09-06T10:14:45;100973.75;;;28.17;45.81
8140;BME280;4111;50.972;7.072;2022-09-06T10:17:31;100976.00;;;28.11;46.17
8140;BME280;4111;50.972;7.072;2022-09-06T10:20:09;100968.09;;;27.97;45.72
8140;BME280;4111;50.972;7.072;2022-09-06T10:22:54;100973.47;;;28.06;45.54
8140;BME280;4111;50.972;7.072;2022-09-06T10:25:43;100972.78;;;28.09;45.57
8140;BME280;4111;50.972;7.072;2022-09-06T10:28:27;100977.00;;;28.19;45.83
8140;BME280;4111;50.972;7.072;2022-09-06T10:36:42;100974.66;;;28.21;45.21
8140;BME280;4111;50.972;7.072;2022-09-06T10:39:32;100962.84;;;28.27;45.01
8140;BME280;4111;50.972;7.072;2022-09-06T10:44:53;100958.59;;;28.34;44.29
8140;BME280;4111;50.972;7.072;2022-09-06T10:47:31;100954.56;;;28.31;44.30
8140;BME280;4111;50.972;7.072;2022-09-06T10:50:02;100963.47;;;28.37;44.34
8140;BME280;4111;50.972;7.072;2022-09-06T10:52:34;100957.53;;;28.38;44.05
8140;BME280;4111;50.972;7.072;2022-09-06T10:55:05;100967.59;;;28.43;44.14
8140;BME280;4111;50.972;7.072;2022-09-06T10:57:42;100964.09;;;28.46;43.67
8140;BME280;4111;50.972;7.072;2022-09-06T11:00:36;100955.88;;;28.53;43.72
8140;BME280;4111;50.972;7.072;2022-09-06T11:03:17;100952.47;;;28.60;43.61
8140;BME280;4111;50.972;7.072;2022-09-06T11:06:07;100950.47;;;28.60;43.10
8140;BME280;4111;50.972;7.072;2022-09-06T11:08:41;100937.06;;;28.50;43.03
8140;BME280;4111;50.972;7.072;2022-09-06T11:11:14;100945.09;;;28.52;43.56
8140;BME280;4111;50.972;7.072;2022-09-06T11:13:43;100950.69;;;28.52;43.27
8140;BME280;4111;50.972;7.072;2022-09-06T11:16:24;100941.91;;;28.53;42.98
8140;BME280;4111;50.972;7.072;2022-09-06T11:19:00;100944.09;;;28.60;43.26
8140;BME280;4111;50.972;7.072;2022-09-06T11:24:44;100949.75;;;28.83;42.49
8140;BME280;4111;50.972;7.072;2022-09-06T11:27:31;100941.97;;;28.92;42.87
8140;BME280;4111;50.972;7.072;2022-09-06T11:30:00;100941.75;;;29.01;42.90
8140;BME280;4111;50.972;7.072;2022-09-06T11:32:39;100945.06;;;29.06;42.57
8140;BME280;4111;50.972;7.072;2022-09-06T11:35:19;100937.44;;;29.03;42.15
8140;BME280;4111;50.972;7.072;2022-09-06T11:37:47;100940.59;;;29.02;42.24
8140;BME280;4111;50.972;7.072;2022-09-06T11:40:37;100939.47;;;29.06;42.03
8140;BME280;4111;50.972;7.072;2022-09-06T11:43:09;100937.13;;;29.08;42.21
8140;BME280;4111;50.972;7.072;2022-09-06T11:46:03;100940.22;;;28.84;41.79
8140;BME280;4111;50.972;7.072;2022-09-06T11:48:32;100940.22;;;28.84;42.23
8140;BME280;4111;50.972;7.072;2022-09-06T11:51:06;100928.44;;;28.94;42.41
8140;BME280;4111;50.972;7.072;2022-09-06T11:56:33;100923.88;;;29.05;42.03
8140;BME280;4111;50.972;7.072;2022-09-06T11:59:06;100925.75;;;29.17;42.40
8140;BME280;4111;50.972;7.072;2022-09-06T12:01:38;100910.78;;;29.10;41.73
8140;BME280;4111;50.972;7.072;2022-09-06T12:04:08;100908.91;;;29.14;41.99
8140;BME280;4111;50.972;7.072;2022-09-06T12:07:05;100907.41;;;29.20;41.68
8140;BME280;4111;50.972;7.072;2022-09-06T12:09:27;100900.66;;;29.21;41.88
8140;BME280;4111;50.972;7.072;2022-09-06T12:11:55;100903.06;;;29.22;41.59
8140;BME280;4111;50.972;7.072;2022-09-06T12:19:49;100898.13;;;29.35;41.99
8140;BME280;4111;50.972;7.072;2022-09-06T12:27:28;100897.94;;;29.48;41.54
8140;BME280;4111;50.972;7.072;2022-09-06T12:30:06;100893.22;;;29.52;41.47
8140;BME280;4111;50.972;7.072;2022-09-06T12:32:43;100894.63;;;29.42;41.29
8140;BME280;4111;50.972;7.072;2022-09-06T12:35:22;100898.03;;;29.74;41.50
8140;BME280;4111;50.972;7.072;2022-09-06T12:38:14;100896.50;;;30.87;39.54
8140;BME280;4111;50.972;7.072;2022-09-06T12:40:46;100891.75;;;31.66;38.04
8140;BME280;4111;50.972;7.072;2022-09-06T12:43:15;100884.16;;;32.22;37.27
8140;BME280;4111;50.972;7.072;2022-09-06T12:45:44;100876.84;;;32.76;36.58
8140;BME280;4111;50.972;7.072;2022-09-06T12:48:12;100870.88;;;33.03;35.95
8140;BME280;4111;50.972;7.072;2022-09-06T12:51:07;100869.03;;;33.79;34.95
8140;BME280;4111;50.972;7.072;2022-09-06T12:53:38;100872.59;;;34.15;34.25
8140;BME280;4111;50.972;7.072;2022-09-06T12:56:07;100873.84;;;33.93;33.78
8140;BME280;4111;50.972;7.072;2022-09-06T12:58:35;100867.78;;;33.98;33.84
8140;BME280;4111;50.972;7.072;2022-09-06T13:01:08;100864.50;;;34.39;33.09
8140;BME280;4111;50.972;7.072;2022-09-06T13:03:55;100864.09;;;34.44;32.72
8140;BME280;4111;50.972;7.072;2022-09-06T13:06:26;100863.44;;;35.00;32.29
8140;BME280;4111;50.972;7.072;2022-09-06T13:08:54;100863.78;;;35.09;32.32
8140;BME280;4111;50.972;7.072;2022-09-06T13:11:43;100868.22;;;35.10;31.36
8140;BME280;4111;50.972;7.072;2022-09-06T13:14:17;100865.94;;;34.83;31.69
8140;BME280;4111;50.972;7.072;2022-09-06T13:16:47;100874.34;;;34.98;31.54
8140;BME280;4111;50.972;7.072;2022-09-06T13:19:18;100862.78;;;35.41;31.46
8140;BME280;4111;50.972;7.072;2022-09-06T13:21:54;100860.03;;;35.33;30.85
8140;BME280;4111;50.972;7.072;2022-09-06T13:24:36;100862.38;;;35.39;30.69
8140;BME280;4111;50.972;7.072;2022-09-06T13:27:41;100855.53;;;35.40;30.68
8140;BME280;4111;50.972;7.072;2022-09-06T13:30:35;100852.91;;;35.63;30.78
8140;BME280;4111;50.972;7.072;2022-09-06T13:33:04;100852.03;;;35.73;30.74
8140;BME280;4111;50.972;7.072;2022-09-06T13:35:35;100842.81;;;35.69;30.48
8140;BME280;4111;50.972;7.072;2022-09-06T13:38:19;100835.28;;;35.93;29.92
8140;BME280;4111;50.972;7.072;2022-09-06T13:40:48;100838.41;;;36.06;29.91
8140;BME280;4111;50.972;7.072;2022-09-06T13:43:42;100832.22;;;36.19;30.25
8140;BME280;4111;50.972;7.072;2022-09-06T13:46:10;100839.72;;;36.36;30.08
8140;BME280;4111;50.972;7.072;2022-09-06T13:48:37;100842.38;;;36.47;28.81
8140;BME280;4111;50.972;7.072;2022-09-06T13:51:06;100839.91;;;36.18;28.22
8140;BME280;4111;50.972;7.072;2022-09-06T13:53:34;100843.44;;;35.84;27.61
8140;BME280;4111;50.972;7.072;2022-09-06T13:56:01;100839.44;;;35.82;27.98
8140;BME280;4111;50.972;7.072;2022-09-06T13:58:27;100845.06;;;35.85;28.13
8140;BME280;4111;50.972;7.072;2022-09-06T14:00:55;100847.09;;;35.36;27.41
8140;BME280;4111;50.972;7.072;2022-09-06T14:03:31;100849.34;;;35.00;27.58
8140;BME280;4111;50.972;7.072;2022-09-06T14:05:58;100841.88;;;34.53;28.43
8140;BME280;4111;50.972;7.072;2022-09-06T14:08:28;100843.97;;;34.39;28.36
8140;BME280;4111;50.972;7.072;2022-09-06T14:11:15;100832.72;;;34.13;28.82
8140;BME280;4111;50.972;7.072;2022-09-06T14:13:42;100839.16;;;34.10;28.90
8140;BME280;4111;50.972;7.072;2022-09-06T14:16:09;100844.03;;;34.21;28.70
8140;BME280;4111;50.972;7.072;2022-09-06T14:18:36;100830.69;;;34.32;28.30
8140;BME280;4111;50.972;7.072;2022-09-06T14:21:03;100835.03;;;34.54;28.54
8140;BME280;4111;50.972;7.072;2022-09-06T14:23:30;100828.56;;;34.57;28.25
8140;BME280;4111;50.972;7.072;2022-09-06T14:25:58;100820.78;;;34.87;28.01
8140;BME280;4111;50.972;7.072;2022-09-06T14:28:26;100819.41;;;35.13;26.85
8140;BME280;4111;50.972;7.072;2022-09-06T14:30:53;100817.31;;;35.28;27.16
8140;BME280;4111;50.972;7.072;2022-09-06T14:33:20;100820.00;;;35.46;26.63
8140;BME280;4111;50.972;7.072;2022-09-06T14:35:47;100807.91;;;35.42;25.77